Time;durP1;ratioP1;P1;durP2;ratioP2;P2;SDS_P1;SDS_P2;PMS_P1;PMS_P2;Temp;Humidity;BMP_temperature;BMP_pressure;BME280_temperature;BME280_humidity;BME280_pressure;Samples;Min_cycle;Max_cycle;Signal;HPM_P1;HPM_P2
2021/01/08 00:00:24;;;;;;;28.00;17.87;;;;;;;;;;5093154;28;20491;-83
2021/01/08 00:02:49;;;;;;;31.00;18.37;;;;;;;;;;5092848;28;20163;-83
2021/01/08 00:05:15;;;;;;;32.23;18.73;;;;;;;;;;5092318;28;20256;-83
2021/01/08 00:07:40;;;;;;;29.13;19.13;;;;;;;;;;5092727;28;20205;-83
2021/01/08 00:10:06;;;;;;;31.30;18.87;;;;;;;;;;5092763;28;20179;-83
2021/01/08 00:12:32;;;;;;;33.50;19.00;;;;;;;;;;5092936;28;20185;-83
2021/01/08 00:14:58;;;;;;;33.63;19.23;;;;;;;;;;5092256;28;20556;-83
2021/01/08 00:17:25;;;;;;;42.23;23.00;;;;;;;;;;5092691;28;20178;-83
2021/01/08 00:19:51;;;;;;;34.40;20.67;;;;;;;;;;5092933;28;20162;-83
2021/01/08 00:22:16;;;;;;;53.40;27.67;;;;;;;;;;5092595;28;20534;-83
2021/01/08 00:24:41;;;;;;;40.27;21.87;;;;;;;;;;5092581;28;20166;-83
2021/01/08 00:27:07;;;;;;;33.73;19.73;;;;;;;;;;5092553;28;20258;-84
2021/01/08 00:29:32;;;;;;;38.27;22.23;;;;;;;;;;5092242;28;20194;-83
2021/01/08 00:31:57;;;;;;;33.07;20.00;;;;;;;;;;5085439;28;20194;-83
2021/01/08 00:34:22;;;;;;;31.30;18.77;;;;;;;;;;5087132;28;20166;-83
2021/01/08 00:36:48;;;;;;;28.00;17.70;;;;;;;;;;5075183;28;20172;-83
2021/01/08 00:39:13;;;;;;;27.50;17.67;;;;;;;;;;5074225;28;20240;-83
2021/01/08 00:41:39;;;;;;;33.20;21.53;;;;;;;;;;5092252;28;20299;-83
2021/01/08 00:44:04;;;;;;;48.37;26.07;;;;;;;;;;5092790;28;20167;-83
2021/01/08 00:46:30;;;;;;;30.80;19.50;;;;;;;;;;5092640;28;20162;-83
2021/01/08 00:48:56;;;;;;;32.17;19.47;;;;;;;;;;5080124;28;20207;-83
2021/01/08 00:51:22;;;;;;;31.07;19.53;;;;;;;;;;5072161;28;20171;-83
2021/01/08 00:53:47;;;;;;;34.20;20.23;;;;;;;;;;5072434;28;20254;-83
2021/01/08 00:56:16;;;;;;;32.03;19.63;;;;;;;;;;5075531;28;20206;-83
2021/01/08 00:58:41;;;;;;;27.80;18.70;;;;;;;;;;5075965;28;20642;-83
2021/01/08 01:01:06;;;;;;;31.23;19.60;;;;;;;;;;5075737;28;20202;-83
2021/01/08 01:03:31;;;;;;;36.97;22.83;;;;;;;;;;5075617;28;20167;-83
2021/01/08 01:05:57;;;;;;;34.37;21.00;;;;;;;;;;5075525;28;20235;-83
2021/01/08 01:08:22;;;;;;;34.17;20.33;;;;;;;;;;5075713;28;20202;-83
2021/01/08 01:10:47;;;;;;;30.03;19.37;;;;;;;;;;5076304;28;20270;-83
2021/01/08 01:13:12;;;;;;;30.23;19.00;;;;;;;;;;5075207;28;20170;-83
2021/01/08 01:15:38;;;;;;;30.33;19.23;;;;;;;;;;5075668;28;20233;-83
2021/01/08 01:18:03;;;;;;;31.43;19.20;;;;;;;;;;5075045;28;20182;-83
2021/01/08 01:20:28;;;;;;;26.83;18.17;;;;;;;;;;5075014;28;20568;-83
2021/01/08 01:22:54;;;;;;;28.20;19.00;;;;;;;;;;5074966;28;20164;-83
2021/01/08 01:25:19;;;;;;;31.23;19.37;;;;;;;;;;5075208;28;20212;-83
2021/01/08 01:27:44;;;;;;;30.73;19.90;;;;;;;;;;5074890;28;20230;-83
2021/01/08 01:30:10;;;;;;;27.30;18.07;;;;;;;;;;5074847;28;20254;-83
2021/01/08 01:32:35;;;;;;;32.83;19.87;;;;;;;;;;5075020;28;20553;-84
2021/01/08 01:35:00;;;;;;;32.77;20.10;;;;;;;;;;5074815;28;20206;-84
2021/01/08 01:37:26;;;;;;;31.33;20.50;;;;;;;;;;5074808;28;20292;-85
2021/01/08 01:39:51;;;;;;;31.97;19.93;;;;;;;;;;5074712;28;20225;-84
2021/01/08 01:42:16;;;;;;;29.53;18.67;;;;;;;;;;5074696;28;20171;-85
2021/01/08 01:44:41;;;;;;;30.50;18.70;;;;;;;;;;5074891;28;20179;-84
2021/01/08 01:47:07;;;;;;;52.97;29.17;;;;;;;;;;5074506;28;20202;-84
2021/01/08 01:49:32;;;;;;;34.63;20.43;;;;;;;;;;5074492;28;20339;-83
2021/01/08 01:51:59;;;;;;;31.80;20.33;;;;;;;;;;5074465;28;20182;-84
2021/01/08 01:54:25;;;;;;;34.23;21.73;;;;;;;;;;5074415;28;20175;-84
2021/01/08 01:56:50;;;;;;;39.87;25.47;;;;;;;;;;5056741;28;20301;-84
2021/01/08 01:59:16;;;;;;;38.17;22.33;;;;;;;;;;5074357;28;20652;-84
2021/01/08 02:01:41;;;;;;;30.90;19.33;;;;;;;;;;5056600;28;20184;-84
2021/01/08 02:04:06;;;;;;;30.47;19.23;;;;;;;;;;5074435;28;20175;-84
2021/01/08 02:06:33;;;;;;;43.77;25.60;;;;;;;;;;5073847;28;20231;-84
2021/01/08 02:09:01;;;;;;;31.27;19.73;;;;;;;;;;5074312;28;20277;-84
2021/01/08 02:11:28;;;;;;;35.37;21.47;;;;;;;;;;5074345;28;20175;-84
2021/01/08 02:13:57;;;;;;;31.70;21.00;;;;;;;;;;5074026;28;20533;-84
2021/01/08 02:16:23;;;;;;;35.00;21.60;;;;;;;;;;5073839;28;20206;-84
2021/01/08 02:18:50;;;;;;;32.70;19.23;;;;;;;;;;5074126;28;20519;-83
2021/01/08 02:21:18;;;;;;;27.43;18.43;;;;;;;;;;5073831;28;20175;-83
2021/01/08 02:23:47;;;;;;;28.93;18.50;;;;;;;;;;5074221;28;20175;-83
2021/01/08 02:26:13;;;;;;;29.10;18.43;;;;;;;;;;5073709;28;20542;-84
2021/01/08 02:28:38;;;;;;;30.30;18.63;;;;;;;;;;5073630;28;20195;-84
2021/01/08 02:31:04;;;;;;;38.27;24.27;;;;;;;;;;5073409;28;20262;-84
2021/01/08 02:33:30;;;;;;;26.10;17.33;;;;;;;;;;5074119;28;20674;-84
2021/01/08 02:35:58;;;;;;;29.40;18.60;;;;;;;;;;5073833;28;20171;-84
2021/01/08 02:38:24;;;;;;;30.37;18.53;;;;;;;;;;5073542;28;20175;-83
2021/01/08 02:40:50;;;;;;;28.77;18.13;;;;;;;;;;5073973;28;20650;-83
2021/01/08 02:43:19;;;;;;;29.37;18.20;;;;;;;;;;5055847;28;20649;-83
2021/01/08 02:45:44;;;;;;;30.40;19.47;;;;;;;;;;5073348;28;20636;-84
2021/01/08 02:48:10;;;;;;;29.37;18.60;;;;;;;;;;5073450;28;20272;-84
2021/01/08 02:50:35;;;;;;;25.50;16.73;;;;;;;;;;5073627;28;20171;-83
2021/01/08 02:53:03;;;;;;;27.43;17.23;;;;;;;;;;5073508;28;20606;-84
2021/01/08 02:55:30;;;;;;;25.50;17.17;;;;;;;;;;5073456;28;20185;-83
2021/01/08 02:57:56;;;;;;;29.00;17.73;;;;;;;;;;5073147;28;20167;-83
2021/01/08 03:00:22;;;;;;;29.07;18.97;;;;;;;;;;5073937;28;20171;-83
2021/01/08 03:02:47;;;;;;;29.50;17.47;;;;;;;;;;5073458;28;20191;-83
2021/01/08 03:05:13;;;;;;;34.10;20.77;;;;;;;;;;5074226;28;20313;-83
2021/01/08 03:07:40;;;;;;;25.47;17.53;;;;;;;;;;5073831;28;20172;-83
2021/01/08 03:10:06;;;;;;;25.57;16.60;;;;;;;;;;5074207;28;20514;-83
2021/01/08 03:12:31;;;;;;;27.23;17.73;;;;;;;;;;5074967;28;20175;-84
2021/01/08 03:14:57;;;;;;;29.00;19.07;;;;;;;;;;5073831;28;20205;-83
2021/01/08 03:17:22;;;;;;;29.33;17.73;;;;;;;;;;5073804;28;20537;-84
2021/01/08 03:19:48;;;;;;;30.17;19.00;;;;;;;;;;5073726;28;20175;-84
2021/01/08 03:22:13;;;;;;;25.53;17.27;;;;;;;;;;5074022;28;20256;-83
2021/01/08 03:24:38;;;;;;;27.20;17.00;;;;;;;;;;5073719;28;20170;-83
2021/01/08 03:27:03;;;;;;;27.90;17.27;;;;;;;;;;5073961;28;20517;-83
2021/01/08 03:29:29;;;;;;;27.00;16.67;;;;;;;;;;5073896;28;20201;-83
2021/01/08 03:31:54;;;;;;;27.83;17.90;;;;;;;;;;5074226;28;20697;-83
2021/01/08 03:34:19;;;;;;;28.70;18.37;;;;;;;;;;5073613;28;20163;-83
2021/01/08 03:36:45;;;;;;;27.73;16.50;;;;;;;;;;5073583;28;20171;-83
2021/01/08 03:39:10;;;;;;;24.57;16.30;;;;;;;;;;5073529;28;20175;-83
2021/01/08 03:41:35;;;;;;;26.63;17.70;;;;;;;;;;5073491;28;20171;-84
2021/01/08 03:44:01;;;;;;;26.33;16.17;;;;;;;;;;5073500;28;20274;-84
2021/01/08 03:46:26;;;;;;;26.90;16.13;;;;;;;;;;5073501;28;20210;-84
2021/01/08 03:48:51;;;;;;;25.13;15.93;;;;;;;;;;5073707;28;20199;-84
2021/01/08 03:51:17;;;;;;;25.33;16.03;;;;;;;;;;5074032;28;20193;-84
2021/01/08 03:53:42;;;;;;;25.00;16.50;;;;;;;;;;5073992;28;20174;-84
2021/01/08 03:56:07;;;;;;;26.60;17.07;;;;;;;;;;5055957;28;20582;-84
2021/01/08 03:58:33;;;;;;;24.60;16.90;;;;;;;;;;5073387;28;20533;-84
2021/01/08 04:00:58;;;;;;;25.77;17.00;;;;;;;;;;5073679;28;20521;-83
2021/01/08 04:03:23;;;;;;;26.23;17.13;;;;;;;;;;5073346;28;20536;-84
2021/01/08 04:05:48;;;;;;;22.23;15.03;;;;;;;;;;5073395;28;20276;-84
2021/01/08 04:08:14;;;;;;;23.33;16.23;;;;;;;;;;5074023;28;20198;-84
2021/01/08 04:10:39;;;;;;;25.70;16.43;;;;;;;;;;5073252;28;20174;-84
2021/01/08 04:13:04;;;;;;;27.00;17.53;;;;;;;;;;5073092;28;20217;-84
2021/01/08 04:15:30;;;;;;;25.47;16.40;;;;;;;;;;5073711;28;20282;-84
2021/01/08 04:17:55;;;;;;;28.70;16.20;;;;;;;;;;5073556;28;20506;-84
2021/01/08 04:20:20;;;;;;;26.37;17.23;;;;;;;;;;5073789;28;20174;-84
2021/01/08 04:22:45;;;;;;;24.67;15.80;;;;;;;;;;5073450;28;20619;-84
2021/01/08 04:25:11;;;;;;;25.83;17.37;;;;;;;;;;5073816;28;20180;-84
2021/01/08 04:27:36;;;;;;;28.30;17.37;;;;;;;;;;5073060;28;20172;-84
2021/01/08 04:30:03;;;;;;;25.73;16.90;;;;;;;;;;5076120;28;20305;-84
2021/01/08 04:32:28;;;;;;;24.77;16.60;;;;;;;;;;5077120;28;20529;-84
2021/01/08 04:34:53;;;;;;;24.37;16.23;;;;;;;;;;5076853;28;20163;-84
2021/01/08 04:37:19;;;;;;;25.00;17.53;;;;;;;;;;5077352;28;20168;-84
2021/01/08 04:39:46;;;;;;;27.23;17.23;;;;;;;;;;5076788;28;20171;-83
2021/01/08 04:42:12;;;;;;;26.40;17.97;;;;;;;;;;5076586;28;20629;-83
2021/01/08 04:44:37;;;;;;;27.93;18.67;;;;;;;;;;5077406;28;20171;-83
2021/01/08 04:47:02;;;;;;;30.17;18.97;;;;;;;;;;5077133;28;20191;-83
2021/01/08 04:49:27;;;;;;;31.10;19.10;;;;;;;;;;5076741;28;20544;-83
2021/01/08 04:51:53;;;;;;;26.87;17.90;;;;;;;;;;5076781;28;20213;-83
2021/01/08 04:54:19;;;;;;;27.60;17.97;;;;;;;;;;5077071;28;20246;-83
2021/01/08 04:56:45;;;;;;;30.90;18.83;;;;;;;;;;5076430;28;20662;-84
2021/01/08 04:59:11;;;;;;;29.77;18.27;;;;;;;;;;5076613;28;20171;-84
2021/01/08 05:01:36;;;;;;;29.07;18.73;;;;;;;;;;5076265;28;20182;-84
2021/01/08 05:04:02;;;;;;;30.23;19.10;;;;;;;;;;5076343;28;20269;-84
2021/01/08 05:06:28;;;;;;;30.23;17.73;;;;;;;;;;5077004;28;20663;-84
2021/01/08 05:08:53;;;;;;;30.10;18.03;;;;;;;;;;5076068;28;20214;-84
2021/01/08 05:11:19;;;;;;;27.77;18.00;;;;;;;;;;5076701;28;20171;-84
2021/01/08 05:13:49;;;;;;;30.53;18.80;;;;;;;;;;5076413;28;20172;-84
2021/01/08 05:16:15;;;;;;;30.70;18.57;;;;;;;;;;5076246;28;20258;-84
2021/01/08 05:18:40;;;;;;;30.40;18.57;;;;;;;;;;5076279;28;20240;-84
2021/01/08 05:21:05;;;;;;;26.13;17.40;;;;;;;;;;5076506;28;20171;-84
2021/01/08 05:23:31;;;;;;;28.63;17.97;;;;;;;;;;5076020;28;20529;-83
2021/01/08 05:25:56;;;;;;;26.37;17.10;;;;;;;;;;5059029;28;20241;-84
2021/01/08 05:28:22;;;;;;;29.50;17.97;;;;;;;;;;5076407;28;20206;-83
2021/01/08 05:30:47;;;;;;;29.33;17.60;;;;;;;;;;5076362;28;20237;-82
2021/01/08 05:33:14;;;;;;;32.10;19.20;;;;;;;;;;5075866;28;20261;-83
2021/01/08 05:35:40;;;;;;;29.40;18.27;;;;;;;;;;5076010;28;20171;-82
2021/01/08 05:38:06;;;;;;;30.10;18.63;;;;;;;;;;5075528;28;20641;-82
2021/01/08 05:40:31;;;;;;;30.37;19.07;;;;;;;;;;5074681;28;20170;-83
2021/01/08 05:43:01;;;;;;;33.80;19.70;;;;;;;;;;5058712;28;20262;-83
2021/01/08 05:45:27;;;;;;;30.17;19.50;;;;;;;;;;5075806;28;20740;-83
2021/01/08 05:47:53;;;;;;;32.00;19.50;;;;;;;;;;5075695;28;20207;-83
2021/01/08 05:50:20;;;;;;;31.63;20.20;;;;;;;;;;5075829;28;20172;-83
2021/01/08 05:52:47;;;;;;;36.27;23.13;;;;;;;;;;5075767;28;20175;-83
2021/01/08 05:55:12;;;;;;;35.13;21.73;;;;;;;;;;5075967;28;20258;-83
2021/01/08 05:57:37;;;;;;;39.60;25.83;;;;;;;;;;5075595;28;20258;-84
2021/01/08 06:00:04;;;;;;;42.43;28.77;;;;;;;;;;5075570;28;20209;-84
2021/01/08 06:02:30;;;;;;;39.93;30.30;;;;;;;;;;5075999;28;20175;-83
2021/01/08 06:04:57;;;;;;;35.40;25.23;;;;;;;;;;5075450;28;20258;-83
2021/01/08 06:07:23;;;;;;;29.63;21.70;;;;;;;;;;5075313;28;20717;-83
2021/01/08 06:09:49;;;;;;;33.80;21.73;;;;;;;;;;5074972;28;20293;-83
2021/01/08 06:12:16;;;;;;;28.77;19.27;;;;;;;;;;5075297;28;20250;-83
2021/01/08 06:14:42;;;;;;;28.87;18.90;;;;;;;;;;5074733;28;20623;-83
2021/01/08 06:17:07;;;;;;;28.10;18.70;;;;;;;;;;5075206;28;20199;-83
2021/01/08 06:19:32;;;;;;;30.33;19.50;;;;;;;;;;5075174;28;20258;-83
2021/01/08 06:21:59;;;;;;;31.17;19.50;;;;;;;;;;5074738;28;20171;-84
2021/01/08 06:24:25;;;;;;;29.30;19.40;;;;;;;;;;5075020;28;20175;-84
2021/01/08 06:26:50;;;;;;;30.20;19.10;;;;;;;;;;5074956;28;20182;-84
2021/01/08 06:29:20;;;;;;;31.37;18.93;;;;;;;;;;5093581;28;20195;-84
2021/01/08 06:31:49;;;;;;;29.40;19.17;;;;;;;;;;5099611;28;20148;-84
2021/01/08 06:34:37;;;;;;;30.43;19.63;;;;;;;;;;5094887;28;20174;-83
2021/01/08 06:37:02;;;;;;;30.93;19.27;;;;;;;;;;5088265;28;20175;-83
2021/01/08 06:39:32;;;;;;;30.77;19.47;;;;;;;;;;5084809;28;20175;-83
2021/01/08 06:41:59;;;;;;;33.70;21.10;;;;;;;;;;5074640;28;20175;-83
2021/01/08 06:44:27;;;;;;;37.23;20.27;;;;;;;;;;5074565;28;20167;-83
2021/01/08 06:46:53;;;;;;;29.10;19.97;;;;;;;;;;5074355;28;20258;-83
2021/01/08 06:49:19;;;;;;;33.27;21.67;;;;;;;;;;5074886;28;20226;-83
2021/01/08 06:51:44;;;;;;;37.97;24.10;;;;;;;;;;5074455;28;20167;-83
2021/01/08 06:54:10;;;;;;;40.10;26.93;;;;;;;;;;5074639;28;20167;-83
2021/01/08 06:56:35;;;;;;;35.80;24.70;;;;;;;;;;5074163;28;20185;-83
2021/01/08 06:59:01;;;;;;;39.97;25.27;;;;;;;;;;5074999;28;20181;-84
2021/01/08 07:01:32;;;;;;;37.23;25.40;;;;;;;;;;5073821;28;20168;-84
2021/01/08 07:03:58;;;;;;;33.27;22.60;;;;;;;;;;5074276;28;20502;-84
2021/01/08 07:06:24;;;;;;;32.53;22.53;;;;;;;;;;5056090;28;20223;-84
2021/01/08 07:08:49;;;;;;;31.93;20.40;;;;;;;;;;5074095;28;20206;-84
2021/01/08 07:11:25;;;;;;;31.30;20.17;;;;;;;;;;5073990;28;20739;-84
2021/01/08 07:13:50;;;;;;;33.67;20.97;;;;;;;;;;5074046;28;20174;-83
2021/01/08 07:16:19;;;;;;;35.43;22.37;;;;;;;;;;5074284;28;20191;-84
2021/01/08 07:18:45;;;;;;;33.43;21.07;;;;;;;;;;5074131;28;20518;-83
2021/01/08 07:21:21;;;;;;;36.47;22.03;;;;;;;;;;5074372;28;20167;-83
2021/01/08 07:23:46;;;;;;;35.17;21.50;;;;;;;;;;5074049;28;20187;-85
2021/01/08 07:26:12;;;;;;;35.90;23.10;;;;;;;;;;5074275;28;20228;-83
2021/01/08 07:28:37;;;;;;;34.23;22.83;;;;;;;;;;5073748;28;20199;-84
2021/01/08 07:31:09;;;;;;;39.10;24.47;;;;;;;;;;5073896;28;20202;-84
2021/01/08 07:33:42;;;;;;;37.77;24.77;;;;;;;;;;5073919;28;20193;-84
2021/01/08 07:36:21;;;;;;;36.77;25.37;;;;;;;;;;5073919;28;20193;-84
2021/01/08 07:38:46;;;;;;;32.23;22.27;;;;;;;;;;5074168;28;20193;-84
2021/01/08 07:41:12;;;;;;;29.83;19.40;;;;;;;;;;5074119;28;20167;-84
2021/01/08 07:43:37;;;;;;;30.63;19.33;;;;;;;;;;5074465;28;20175;-84
2021/01/08 07:46:03;;;;;;;29.43;18.77;;;;;;;;;;5073799;28;20515;-83
2021/01/08 07:48:35;;;;;;;32.03;20.37;;;;;;;;;;5073488;28;20207;-84
2021/01/08 07:51:00;;;;;;;38.90;23.90;;;;;;;;;;5073708;28;20376;-84
2021/01/08 07:53:41;;;;;;;30.33;20.43;;;;;;;;;;5074045;28;20280;-84
2021/01/08 07:56:10;;;;;;;31.20;20.90;;;;;;;;;;5074032;28;20694;-84
2021/01/08 07:58:36;;;;;;;33.50;21.53;;;;;;;;;;5073673;28;20171;-84
2021/01/08 08:01:05;;;;;;;34.37;21.77;;;;;;;;;;5073420;28;20178;-84
2021/01/08 08:03:31;;;;;;;47.73;26.83;;;;;;;;;;5073390;28;20221;-83
2021/01/08 08:05:56;;;;;;;38.40;23.23;;;;;;;;;;5077661;28;20223;-83
2021/01/08 08:08:23;;;;;;;37.47;23.67;;;;;;;;;;5077577;28;20198;-84
2021/01/08 08:10:48;;;;;;;31.13;21.07;;;;;;;;;;5077811;28;20493;-83
2021/01/08 08:13:14;;;;;;;39.93;24.50;;;;;;;;;;5077940;28;20201;-83
2021/01/08 08:15:49;;;;;;;38.03;23.00;;;;;;;;;;5077465;28;20191;-83
2021/01/08 08:18:14;;;;;;;38.37;23.43;;;;;;;;;;5077545;28;20171;-83
2021/01/08 08:20:40;;;;;;;38.07;22.77;;;;;;;;;;5077100;28;20541;-83
2021/01/08 08:23:16;;;;;;;40.57;24.33;;;;;;;;;;5077020;28;20180;-83
2021/01/08 08:25:41;;;;;;;34.97;20.57;;;;;;;;;;5090905;28;20206;-84
2021/01/08 08:28:07;;;;;;;39.30;23.57;;;;;;;;;;5097508;28;20650;-84
2021/01/08 08:30:32;;;;;;;38.63;23.20;;;;;;;;;;5097010;28;20494;-85
2021/01/08 08:32:58;;;;;;;32.60;20.70;;;;;;;;;;5095247;28;20224;-84
2021/01/08 08:35:23;;;;;;;34.97;22.23;;;;;;;;;;5097416;28;20166;-84
2021/01/08 08:37:56;;;;;;;37.97;23.83;;;;;;;;;;5097571;28;20159;-84
2021/01/08 08:40:30;;;;;;;30.10;20.57;;;;;;;;;;5097019;28;20648;-84
2021/01/08 08:42:59;;;;;;;44.67;30.90;;;;;;;;;;5097109;28;20163;-85
2021/01/08 08:45:28;;;;;;;27.93;18.10;;;;;;;;;;5094684;28;20231;-85
2021/01/08 08:47:59;;;;;;;26.63;17.83;;;;;;;;;;5096357;28;20449;-85
2021/01/08 08:50:27;;;;;;;31.60;20.13;;;;;;;;;;5079242;28;20641;-84
2021/01/08 08:52:52;;;;;;;70.67;39.97;;;;;;;;;;5077330;28;20186;-84
2021/01/08 08:55:31;;;;;;;67.57;40.33;;;;;;;;;;5096513;28;20170;-85
2021/01/08 08:57:59;;;;;;;39.27;28.53;;;;;;;;;;5095871;28;20219;-85
2021/01/08 09:00:27;;;;;;;25.30;17.87;;;;;;;;;;5095861;28;20167;-85
2021/01/08 09:02:52;;;;;;;28.47;20.40;;;;;;;;;;5096925;28;20170;-85
2021/01/08 09:05:17;;;;;;;23.30;17.23;;;;;;;;;;5096340;28;20236;-86
2021/01/08 09:07:42;;;;;;;26.40;17.43;;;;;;;;;;5097138;28;20614;-85
2021/01/08 09:10:11;;;;;;;25.00;17.90;;;;;;;;;;5096435;28;20162;-85
2021/01/08 09:12:53;;;;;;;23.53;17.00;;;;;;;;;;5096745;28;20690;-85
2021/01/08 09:15:22;;;;;;;24.63;16.67;;;;;;;;;;5096660;28;20576;-85
2021/01/08 09:17:50;;;;;;;23.97;16.40;;;;;;;;;;5097039;28;20189;-85
2021/01/08 09:20:17;;;;;;;20.30;14.03;;;;;;;;;;5096469;28;20174;-85
2021/01/08 09:22:42;;;;;;;21.83;15.63;;;;;;;;;;5096578;28;20586;-85
2021/01/08 09:25:08;;;;;;;19.27;14.00;;;;;;;;;;5096367;28;20178;-85
2021/01/08 09:27:35;;;;;;;22.20;16.53;;;;;;;;;;5096182;28;20174;-85
2021/01/08 09:30:10;;;;;;;22.83;16.40;;;;;;;;;;5096291;28;20210;-85
2021/01/08 09:32:35;;;;;;;20.90;15.07;;;;;;;;;;5085148;28;20651;-85
2021/01/08 09:35:08;;;;;;;49.20;32.63;;;;;;;;;;5082384;28;20210;-85
2021/01/08 09:37:37;;;;;;;27.60;17.77;;;;;;;;;;5093343;28;20205;-85
2021/01/08 09:40:07;;;;;;;29.57;19.57;;;;;;;;;;5093745;28;20197;-85
2021/01/08 09:42:36;;;;;;;24.33;18.17;;;;;;;;;;5095154;28;20158;-85
2021/01/08 09:45:15;;;;;;;20.77;15.40;;;;;;;;;;5077892;28;20185;-85
2021/01/08 09:47:40;;;;;;;23.93;19.10;;;;;;;;;;5096334;28;20166;-85
2021/01/08 09:50:06;;;;;;;30.17;20.67;;;;;;;;;;5095406;28;20532;-85
2021/01/08 09:52:31;;;;;;;21.03;14.77;;;;;;;;;;5095067;28;20259;-85
2021/01/08 09:54:56;;;;;;;27.57;17.40;;;;;;;;;;5077590;28;20190;-85
2021/01/08 09:57:29;;;;;;;22.57;14.73;;;;;;;;;;5074147;28;20236;-85
2021/01/08 09:59:58;;;;;;;97.03;47.47;;;;;;;;;;5074165;28;20199;-86
2021/01/08 10:02:39;;;;;;;27.90;18.47;;;;;;;;;;5074148;28;20203;-86
2021/01/08 10:05:22;;;;;;;19.17;13.67;;;;;;;;;;5075655;28;20226;-85
2021/01/08 10:07:48;;;;;;;23.27;15.43;;;;;;;;;;5075295;28;20182;-85
2021/01/08 10:10:14;;;;;;;28.43;19.00;;;;;;;;;;5075310;28;20172;-86
2021/01/08 10:12:43;;;;;;;35.37;20.93;;;;;;;;;;5075173;28;20173;-85
2021/01/08 10:15:09;;;;;;;23.73;15.53;;;;;;;;;;5075459;28;20187;-86
2021/01/08 10:17:43;;;;;;;26.23;18.77;;;;;;;;;;5075414;28;20174;-87
2021/01/08 10:20:08;;;;;;;32.87;24.60;;;;;;;;;;5074926;28;20607;-87
2021/01/08 10:22:44;;;;;;;24.57;17.80;;;;;;;;;;5056201;28;20183;-85
2021/01/08 10:25:23;;;;;;;22.40;14.27;;;;;;;;;;5074736;28;20162;-85
2021/01/08 10:27:50;;;;;;;27.30;16.70;;;;;;;;;;5092650;28;20190;-85
2021/01/08 10:30:16;;;;;;;25.80;16.90;;;;;;;;;;5092818;28;20926;-85
2021/01/08 10:32:45;;;;;;;28.40;18.40;;;;;;;;;;5073176;28;20185;-86
2021/01/08 10:35:11;;;;;;;23.13;17.17;;;;;;;;;;5092669;28;20177;-85
2021/01/08 10:37:36;;;;;;;23.70;15.50;;;;;;;;;;5092760;28;20257;-85
2021/01/08 10:40:02;;;;;;;27.60;17.17;;;;;;;;;;5093087;28;20167;-85
2021/01/08 10:42:27;;;;;;;29.83;19.27;;;;;;;;;;5093297;28;20174;-85
2021/01/08 10:44:55;;;;;;;46.57;28.93;;;;;;;;;;5093467;28;20171;-85
2021/01/08 10:47:21;;;;;;;61.13;35.50;;;;;;;;;;5093946;28;20533;-85
2021/01/08 10:49:46;;;;;;;33.77;20.27;;;;;;;;;;5081674;28;20203;-84
2021/01/08 10:52:13;;;;;;;59.70;34.20;;;;;;;;;;5093758;28;20170;-85
2021/01/08 10:54:38;;;;;;;28.67;19.53;;;;;;;;;;5093597;28;20253;-83
2021/01/08 10:57:03;;;;;;;28.97;19.00;;;;;;;;;;5089458;28;20259;-85
2021/01/08 10:59:29;;;;;;;36.13;24.00;;;;;;;;;;5076103;28;20580;-85
2021/01/08 11:01:54;;;;;;;23.17;14.87;;;;;;;;;;5073050;28;20163;-85
2021/01/08 11:04:19;;;;;;;21.93;15.23;;;;;;;;;;5076471;28;20592;-85
2021/01/08 11:06:45;;;;;;;21.50;14.90;;;;;;;;;;5091919;28;20162;-84
2021/01/08 11:09:10;;;;;;;28.10;17.73;;;;;;;;;;5091950;28;20245;-85
2021/01/08 11:11:35;;;;;;;27.83;17.20;;;;;;;;;;5091996;28;20185;-84
2021/01/08 11:14:02;;;;;;;34.03;20.77;;;;;;;;;;5092267;28;20579;-84
2021/01/08 11:16:27;;;;;;;28.10;19.30;;;;;;;;;;5091768;28;20283;-85
2021/01/08 11:18:53;;;;;;;35.43;19.33;;;;;;;;;;5092493;28;20180;-85
2021/01/08 11:21:21;;;;;;;28.87;19.23;;;;;;;;;;5092153;28;20171;-85
2021/01/08 11:23:47;;;;;;;28.80;18.77;;;;;;;;;;5093050;28;20178;-85
2021/01/08 11:26:12;;;;;;;27.77;18.43;;;;;;;;;;5093125;28;20167;-85
2021/01/08 11:28:37;;;;;;;26.97;16.43;;;;;;;;;;5092912;28;20293;-85
2021/01/08 11:31:03;;;;;;;25.63;16.37;;;;;;;;;;5092733;28;20174;-85
2021/01/08 11:33:31;;;;;;;26.87;17.10;;;;;;;;;;5073464;28;20194;-85
2021/01/08 11:35:56;;;;;;;21.60;14.83;;;;;;;;;;5091270;28;20174;-85
2021/01/08 11:38:21;;;;;;;27.10;17.30;;;;;;;;;;5091095;28;20532;-85
2021/01/08 11:40:46;;;;;;;31.13;19.90;;;;;;;;;;5091411;28;20533;-85
2021/01/08 11:43:12;;;;;;;29.30;19.37;;;;;;;;;;5072623;28;20182;-84
2021/01/08 11:45:37;;;;;;;27.33;18.47;;;;;;;;;;5068624;28;20653;-85
2021/01/08 11:48:03;;;;;;;33.40;20.60;;;;;;;;;;5079936;28;20229;-85
2021/01/08 11:50:28;;;;;;;26.30;17.50;;;;;;;;;;5081814;28;20166;-85
2021/01/08 11:53:01;;;;;;;24.80;16.80;;;;;;;;;;5080548;28;20171;-84
2021/01/08 11:55:26;;;;;;;24.80;15.27;;;;;;;;;;5080002;28;20186;-85
2021/01/08 11:57:51;;;;;;;25.60;16.33;;;;;;;;;;5085829;28;20524;-85
2021/01/08 12:00:17;;;;;;;20.97;14.60;;;;;;;;;;5073504;28;20178;-84
2021/01/08 12:02:42;;;;;;;24.43;16.60;;;;;;;;;;5082369;28;20266;-85
2021/01/08 12:05:08;;;;;;;22.70;15.37;;;;;;;;;;5081459;28;20218;-87
2021/01/08 12:07:34;;;;;;;25.13;18.23;;;;;;;;;;5080175;28;20576;-85
2021/01/08 12:09:59;;;;;;;23.73;15.40;;;;;;;;;;5083282;28;20211;-84
2021/01/08 12:12:24;;;;;;;21.03;14.87;;;;;;;;;;5079036;28;20224;-85
2021/01/08 12:14:50;;;;;;;22.90;15.83;;;;;;;;;;5070896;28;20236;-85
2021/01/08 12:17:15;;;;;;;23.30;15.50;;;;;;;;;;5080092;28;20273;-85
2021/01/08 12:19:40;;;;;;;21.10;15.33;;;;;;;;;;5090372;28;20265;-84
2021/01/08 12:22:06;;;;;;;21.60;14.63;;;;;;;;;;5090697;28;20182;-84
2021/01/08 12:24:32;;;;;;;23.93;16.47;;;;;;;;;;5091186;28;20202;-84
2021/01/08 12:26:57;;;;;;;29.70;21.10;;;;;;;;;;5090734;28;20179;-83
2021/01/08 12:29:23;;;;;;;24.23;16.70;;;;;;;;;;5090998;28;20206;-85
2021/01/08 12:31:48;;;;;;;42.13;24.53;;;;;;;;;;5091021;28;20256;-84
2021/01/08 12:34:13;;;;;;;27.83;17.43;;;;;;;;;;5092116;28;20559;-86
2021/01/08 12:36:39;;;;;;;40.60;24.60;;;;;;;;;;5091993;28;20265;-85
2021/01/08 12:39:04;;;;;;;29.43;17.97;;;;;;;;;;5092531;28;20189;-85
2021/01/08 12:41:30;;;;;;;42.77;26.57;;;;;;;;;;5092817;28;20189;-85
2021/01/08 12:43:55;;;;;;;41.37;25.30;;;;;;;;;;5092124;28;20228;-85
2021/01/08 12:46:21;;;;;;;37.43;26.20;;;;;;;;;;5092957;28;20182;-85
2021/01/08 12:48:46;;;;;;;30.43;18.57;;;;;;;;;;5091831;28;20221;-84
2021/01/08 12:51:13;;;;;;;42.07;25.53;;;;;;;;;;5093863;28;20506;-84
2021/01/08 12:53:39;;;;;;;34.77;22.80;;;;;;;;;;5096522;28;20174;-84
2021/01/08 12:56:04;;;;;;;60.63;33.63;;;;;;;;;;5095587;28;20232;-85
2021/01/08 12:58:31;;;;;;;64.83;35.17;;;;;;;;;;5095435;28;20175;-85
2021/01/08 13:00:56;;;;;;;46.47;28.23;;;;;;;;;;5096016;28;20178;-85
2021/01/08 13:03:21;;;;;;;44.67;28.30;;;;;;;;;;5093152;28;20578;-85
2021/01/08 13:05:47;;;;;;;46.07;28.07;;;;;;;;;;5086070;28;20226;-86
2021/01/08 13:08:12;;;;;;;31.90;19.67;;;;;;;;;;5086097;28;20781;-84
2021/01/08 13:10:37;;;;;;;34.43;20.77;;;;;;;;;;5085141;28;20179;-84
2021/01/08 13:13:03;;;;;;;44.47;26.57;;;;;;;;;;5086779;28;20178;-84
2021/01/08 13:15:28;;;;;;;26.93;18.30;;;;;;;;;;5085785;28;20320;-85
2021/01/08 13:17:53;;;;;;;29.80;18.67;;;;;;;;;;5083836;28;20296;-85
2021/01/08 13:20:19;;;;;;;43.57;26.30;;;;;;;;;;5084955;28;20541;-85
2021/01/08 13:22:44;;;;;;;31.27;18.37;;;;;;;;;;5085194;28;20525;-85
2021/01/08 13:25:09;;;;;;;25.03;17.40;;;;;;;;;;5083799;28;20171;-85
2021/01/08 13:27:35;;;;;;;28.40;19.57;;;;;;;;;;5085511;28;20170;-85
2021/01/08 13:30:02;;;;;;;31.97;19.57;;;;;;;;;;5084501;28;20276;-84
2021/01/08 13:32:28;;;;;;;40.47;26.47;;;;;;;;;;5083549;28;20179;-85
2021/01/08 13:34:53;;;;;;;34.07;21.23;;;;;;;;;;5085984;28;20684;-84
2021/01/08 13:37:18;;;;;;;35.63;22.73;;;;;;;;;;5064743;28;20171;-84
2021/01/08 13:39:44;;;;;;;48.37;27.77;;;;;;;;;;5080143;28;20175;-84
2021/01/08 13:42:11;;;;;;;35.10;22.73;;;;;;;;;;5062050;28;20171;-84
2021/01/08 13:44:36;;;;;;;49.77;29.70;;;;;;;;;;5075006;28;20179;-84
2021/01/08 13:47:03;;;;;;;40.17;23.90;;;;;;;;;;5074559;28;20167;-84
2021/01/08 13:49:29;;;;;;;28.67;18.57;;;;;;;;;;5075049;28;20649;-84
2021/01/08 13:51:57;;;;;;;32.27;20.97;;;;;;;;;;5075196;28;20173;-84
2021/01/08 13:54:23;;;;;;;49.60;31.33;;;;;;;;;;5074478;28;20171;-84
2021/01/08 13:56:48;;;;;;;44.33;27.10;;;;;;;;;;5073263;28;20640;-84
2021/01/08 13:59:14;;;;;;;51.73;31.50;;;;;;;;;;5056154;28;20354;-84
2021/01/08 14:01:39;;;;;;;47.43;30.27;;;;;;;;;;5073121;28;20647;-84
2021/01/08 14:04:04;;;;;;;58.33;31.90;;;;;;;;;;5074530;28;20607;-84
2021/01/08 14:06:30;;;;;;;35.57;20.67;;;;;;;;;;5052991;28;20318;-84
2021/01/08 14:08:55;;;;;;;28.93;18.50;;;;;;;;;;5054310;28;20556;-84
2021/01/08 14:11:31;;;;;;;38.17;23.43;;;;;;;;;;5054031;28;20619;-84